sensor_id;sensor_type;location;lat;lon;timestamp;temperature;humidity
80706;DHT22;70073;48.010;7.852;2023-05-10T00:02:09;22.10;66.50
80706;DHT22;70073;48.010;7.852;2023-05-10T00:04:34;22.00;66.40
80706;DHT22;70073;48.010;7.852;2023-05-10T00:07:00;22.00;66.30
80706;DHT22;70073;48.010;7.852;2023-05-10T00:09:25;22.00;66.30
80706;DHT22;70073;48.010;7.852;2023-05-10T00:11:51;22.10;66.30
80706;DHT22;70073;48.010;7.852;2023-05-10T00:14:17;22.10;66.50
80706;DHT22;70073;48.010;7.852;2023-05-10T00:16:42;22.10;66.30
80706;DHT22;70073;48.010;7.852;2023-05-10T00:19:08;22.00;66.30
80706;DHT22;70073;48.010;7.852;2023-05-10T00:21:34;22.10;66.30
80706;DHT22;70073;48.010;7.852;2023-05-10T00:24:00;22.10;66.20
80706;DHT22;70073;48.010;7.852;2023-05-10T00:26:25;22.00;66.20
80706;DHT22;70073;48.010;7.852;2023-05-10T00:28:51;22.00;66.20
80706;DHT22;70073;48.010;7.852;2023-05-10T00:31:16;22.00;66.10
80706;DHT22;70073;48.010;7.852;2023-05-10T00:33:42;22.00;66.10
80706;DHT22;70073;48.010;7.852;2023-05-10T00:36:08;22.00;66.20
80706;DHT22;70073;48.010;7.852;2023-05-10T00:38:33;22.00;66.20
80706;DHT22;70073;48.010;7.852;2023-05-10T00:40:59;22.00;66.00
80706;DHT22;70073;48.010;7.852;2023-05-10T00:43:25;22.00;66.10
80706;DHT22;70073;48.010;7.852;2023-05-10T00:45:51;22.00;66.10
80706;DHT22;70073;48.010;7.852;2023-05-10T00:48:16;22.10;66.10
80706;DHT22;70073;48.010;7.852;2023-05-10T00:50:42;22.00;66.00
80706;DHT22;70073;48.010;7.852;2023-05-10T00:53:08;22.00;66.00
80706;DHT22;70073;48.010;7.852;2023-05-10T00:55:34;22.00;66.00
80706;DHT22;70073;48.010;7.852;2023-05-10T00:58:00;22.00;66.00
80706;DHT22;70073;48.010;7.852;2023-05-10T01:00:26;22.00;66.10
80706;DHT22;70073;48.010;7.852;2023-05-10T01:02:53;22.00;66.00
80706;DHT22;70073;48.010;7.852;2023-05-10T01:05:19;22.00;65.90
80706;DHT22;70073;48.010;7.852;2023-05-10T01:07:44;22.00;66.00
80706;DHT22;70073;48.010;7.852;2023-05-10T01:10:10;22.00;66.00
80706;DHT22;70073;48.010;7.852;2023-05-10T01:12:38;22.10;66.00
80706;DHT22;70073;48.010;7.852;2023-05-10T01:15:08;22.00;66.00
80706;DHT22;70073;48.010;7.852;2023-05-10T01:17:38;22.00;66.10
80706;DHT22;70073;48.010;7.852;2023-05-10T01:20:05;22.00;65.90
80706;DHT22;70073;48.010;7.852;2023-05-10T01:25:53;22.00;66.00
80706;DHT22;70073;48.010;7.852;2023-05-10T01:42:07;22.00;65.80
80706;DHT22;70073;48.010;7.852;2023-05-10T01:44:46;22.00;65.70
80706;DHT22;70073;48.010;7.852;2023-05-10T01:47:25;22.00;65.70
80706;DHT22;70073;48.010;7.852;2023-05-10T01:49:55;22.00;65.80
80706;DHT22;70073;48.010;7.852;2023-05-10T01:52:32;22.00;65.80
80706;DHT22;70073;48.010;7.852;2023-05-10T01:55:18;22.00;65.80
80706;DHT22;70073;48.010;7.852;2023-05-10T01:57:46;22.00;65.80
80706;DHT22;70073;48.010;7.852;2023-05-10T02:00:14;22.00;65.80
80706;DHT22;70073;48.010;7.852;2023-05-10T02:02:44;22.00;65.80
80706;DHT22;70073;48.010;7.852;2023-05-10T02:05:12;22.00;65.70
80706;DHT22;70073;48.010;7.852;2023-05-10T02:07:39;22.00;65.70
80706;DHT22;70073;48.010;7.852;2023-05-10T02:10:06;22.00;65.80
80706;DHT22;70073;48.010;7.852;2023-05-10T02:12:36;21.90;65.70
80706;DHT22;70073;48.010;7.852;2023-05-10T02:15:04;22.00;65.70
80706;DHT22;70073;48.010;7.852;2023-05-10T02:17:31;22.00;65.70
80706;DHT22;70073;48.010;7.852;2023-05-10T02:19:58;21.90;65.70
80706;DHT22;70073;48.010;7.852;2023-05-10T02:22:26;22.00;65.70
80706;DHT22;70073;48.010;7.852;2023-05-10T02:24:57;22.00;65.70
80706;DHT22;70073;48.010;7.852;2023-05-10T02:27:24;22.00;65.70
80706;DHT22;70073;48.010;7.852;2023-05-10T02:29:51;22.00;65.70
80706;DHT22;70073;48.010;7.852;2023-05-10T02:32:18;22.00;65.70
80706;DHT22;70073;48.010;7.852;2023-05-10T02:34:45;22.00;65.70
80706;DHT22;70073;48.010;7.852;2023-05-10T02:37:15;22.00;65.70
80706;DHT22;70073;48.010;7.852;2023-05-10T02:39:44;22.00;65.70
80706;DHT22;70073;48.010;7.852;2023-05-10T02:42:16;22.00;65.70
80706;DHT22;70073;48.010;7.852;2023-05-10T02:44:43;21.90;65.60
80706;DHT22;70073;48.010;7.852;2023-05-10T02:47:10;22.00;65.80
80706;DHT22;70073;48.010;7.852;2023-05-10T02:49:36;22.00;65.70
80706;DHT22;70073;48.010;7.852;2023-05-10T02:52:05;22.00;65.60
80706;DHT22;70073;48.010;7.852;2023-05-10T02:54:39;22.00;65.60
80706;DHT22;70073;48.010;7.852;2023-05-10T02:57:07;22.00;65.60
80706;DHT22;70073;48.010;7.852;2023-05-10T02:59:35;22.00;65.60
80706;DHT22;70073;48.010;7.852;2023-05-10T03:02:00;22.00;65.60
80706;DHT22;70073;48.010;7.852;2023-05-10T03:04:27;22.00;65.60
80706;DHT22;70073;48.010;7.852;2023-05-10T03:06:52;22.00;65.60
80706;DHT22;70073;48.010;7.852;2023-05-10T03:09:18;22.00;65.50
80706;DHT22;70073;48.010;7.852;2023-05-10T03:15:00;21.90;65.50
80706;DHT22;70073;48.010;7.852;2023-05-10T03:17:45;22.00;65.60
80706;DHT22;70073;48.010;7.852;2023-05-10T03:20:20;21.90;65.40
80706;DHT22;70073;48.010;7.852;2023-05-10T03:22:51;22.00;65.60
80706;DHT22;70073;48.010;7.852;2023-05-10T03:25:19;22.00;65.50
80706;DHT22;70073;48.010;7.852;2023-05-10T03:27:46;21.90;65.40
80706;DHT22;70073;48.010;7.852;2023-05-10T03:30:13;21.90;65.40
80706;DHT22;70073;48.010;7.852;2023-05-10T03:32:39;21.90;65.40
80706;DHT22;70073;48.010;7.852;2023-05-10T03:35:09;21.90;65.50
80706;DHT22;70073;48.010;7.852;2023-05-10T03:37:35;21.90;65.40
80706;DHT22;70073;48.010;7.852;2023-05-10T03:40:01;21.90;65.40
80706;DHT22;70073;48.010;7.852;2023-05-10T03:42:27;21.90;65.40
80706;DHT22;70073;48.010;7.852;2023-05-10T03:44:53;22.00;65.40
80706;DHT22;70073;48.010;7.852;2023-05-10T03:47:18;21.90;65.40
80706;DHT22;70073;48.010;7.852;2023-05-10T03:49:44;21.90;65.30
80706;DHT22;70073;48.010;7.852;2023-05-10T03:52:09;22.00;65.40
80706;DHT22;70073;48.010;7.852;2023-05-10T03:54:35;21.90;65.30
80706;DHT22;70073;48.010;7.852;2023-05-10T03:57:01;22.00;65.40
80706;DHT22;70073;48.010;7.852;2023-05-10T03:59:26;21.90;65.30
80706;DHT22;70073;48.010;7.852;2023-05-10T04:01:52;21.90;65.30
80706;DHT22;70073;48.010;7.852;2023-05-10T04:04:17;21.90;65.30
80706;DHT22;70073;48.010;7.852;2023-05-10T04:06:44;21.90;65.30
80706;DHT22;70073;48.010;7.852;2023-05-10T04:09:10;21.90;65.20
80706;DHT22;70073;48.010;7.852;2023-05-10T04:11:36;21.90;65.30
80706;DHT22;70073;48.010;7.852;2023-05-10T04:14:01;22.00;65.30
80706;DHT22;70073;48.010;7.852;2023-05-10T04:16:27;22.00;65.30
80706;DHT22;70073;48.010;7.852;2023-05-10T04:18:52;21.90;65.20
80706;DHT22;70073;48.010;7.852;2023-05-10T04:21:18;21.90;65.20
80706;DHT22;70073;48.010;7.852;2023-05-10T04:23:44;22.00;65.40
80706;DHT22;70073;48.010;7.852;2023-05-10T04:26:09;21.90;65.20
80706;DHT22;70073;48.010;7.852;2023-05-10T04:28:35;22.00;65.20
80706;DHT22;70073;48.010;7.852;2023-05-10T04:31:02;21.90;65.10
80706;DHT22;70073;48.010;7.852;2023-05-10T04:33:27;21.90;65.40
80706;DHT22;70073;48.010;7.852;2023-05-10T04:35:53;21.90;65.80
80706;DHT22;70073;48.010;7.852;2023-05-10T04:38:18;21.90;65.00
80706;DHT22;70073;48.010;7.852;2023-05-10T04:40:44;21.90;65.00
80706;DHT22;70073;48.010;7.852;2023-05-10T04:43:09;21.90;65.10
80706;DHT22;70073;48.010;7.852;2023-05-10T04:45:35;21.90;65.10
80706;DHT22;70073;48.010;7.852;2023-05-10T04:48:01;21.90;65.00
80706;DHT22;70073;48.010;7.852;2023-05-10T04:50:26;22.00;65.20
80706;DHT22;70073;48.010;7.852;2023-05-10T04:52:52;21.90;65.00
80706;DHT22;70073;48.010;7.852;2023-05-10T04:55:17;21.90;65.00
80706;DHT22;70073;48.010;7.852;2023-05-10T04:57:43;21.90;65.00
80706;DHT22;70073;48.010;7.852;2023-05-10T05:00:09;21.90;65.00
80706;DHT22;70073;48.010;7.852;2023-05-10T05:02:34;21.90;65.00
80706;DHT22;70073;48.010;7.852;2023-05-10T05:05:00;21.90;65.00
80706;DHT22;70073;48.010;7.852;2023-05-10T05:07:25;22.00;65.00
80706;DHT22;70073;48.010;7.852;2023-05-10T05:09:51;21.90;64.90
80706;DHT22;70073;48.010;7.852;2023-05-10T05:12:16;22.00;65.10
80706;DHT22;70073;48.010;7.852;2023-05-10T05:14:42;22.00;65.00
80706;DHT22;70073;48.010;7.852;2023-05-10T05:17:07;21.90;64.90
80706;DHT22;70073;48.010;7.852;2023-05-10T05:19:33;21.90;64.90
80706;DHT22;70073;48.010;7.852;2023-05-10T05:21:59;21.90;64.90
80706;DHT22;70073;48.010;7.852;2023-05-10T05:24:24;22.00;65.00
80706;DHT22;70073;48.010;7.852;2023-05-10T05:26:50;21.90;65.00
80706;DHT22;70073;48.010;7.852;2023-05-10T05:29:15;22.00;65.30
80706;DHT22;70073;48.010;7.852;2023-05-10T05:31:41;21.90;65.00
80706;DHT22;70073;48.010;7.852;2023-05-10T05:34:06;21.90;65.00
80706;DHT22;70073;48.010;7.852;2023-05-10T05:36:32;21.90;64.90
80706;DHT22;70073;48.010;7.852;2023-05-10T05:38:58;21.90;65.00
80706;DHT22;70073;48.010;7.852;2023-05-10T05:41:23;21.90;64.90
80706;DHT22;70073;48.010;7.852;2023-05-10T05:43:49;21.90;64.90
80706;DHT22;70073;48.010;7.852;2023-05-10T05:46:15;22.00;65.00
80706;DHT22;70073;48.010;7.852;2023-05-10T05:48:40;21.90;64.80
80706;DHT22;70073;48.010;7.852;2023-05-10T05:51:06;21.90;64.80
80706;DHT22;70073;48.010;7.852;2023-05-10T05:53:31;21.90;64.70
80706;DHT22;70073;48.010;7.852;2023-05-10T05:55:58;21.90;64.70
80706;DHT22;70073;48.010;7.852;2023-05-10T05:58:24;21.90;64.70
80706;DHT22;70073;48.010;7.852;2023-05-10T06:00:51;21.90;64.70
80706;DHT22;70073;48.010;7.852;2023-05-10T06:03:17;21.90;64.70
80706;DHT22;70073;48.010;7.852;2023-05-10T06:05:43;21.90;64.70
80706;DHT22;70073;48.010;7.852;2023-05-10T06:08:09;21.90;64.70
80706;DHT22;70073;48.010;7.852;2023-05-10T06:10:35;21.90;64.70
80706;DHT22;70073;48.010;7.852;2023-05-10T06:13:01;21.90;64.60
80706;DHT22;70073;48.010;7.852;2023-05-10T06:15:27;21.90;64.70
80706;DHT22;70073;48.010;7.852;2023-05-10T06:17:53;21.90;64.70
80706;DHT22;70073;48.010;7.852;2023-05-10T06:20:18;21.90;64.70
80706;DHT22;70073;48.010;7.852;2023-05-10T06:22:44;21.90;64.70
80706;DHT22;70073;48.010;7.852;2023-05-10T06:25:10;21.90;64.70
80706;DHT22;70073;48.010;7.852;2023-05-10T06:27:35;21.90;64.60
80706;DHT22;70073;48.010;7.852;2023-05-10T06:30:01;21.90;64.60
80706;DHT22;70073;48.010;7.852;2023-05-10T06:32:28;21.90;64.50
80706;DHT22;70073;48.010;7.852;2023-05-10T06:34:53;21.90;64.60
80706;DHT22;70073;48.010;7.852;2023-05-10T06:37:19;21.90;64.60
80706;DHT22;70073;48.010;7.852;2023-05-10T06:39:44;21.90;64.60
80706;DHT22;70073;48.010;7.852;2023-05-10T06:42:10;21.90;64.60
80706;DHT22;70073;48.010;7.852;2023-05-10T06:44:35;21.90;64.50
80706;DHT22;70073;48.010;7.852;2023-05-10T06:47:01;22.00;64.50
80706;DHT22;70073;48.010;7.852;2023-05-10T06:49:26;21.90;64.40
80706;DHT22;70073;48.010;7.852;2023-05-10T06:51:52;21.90;64.40
80706;DHT22;70073;48.010;7.852;2023-05-10T06:54:18;21.90;64.40
80706;DHT22;70073;48.010;7.852;2023-05-10T06:56:43;21.90;64.40
80706;DHT22;70073;48.010;7.852;2023-05-10T06:59:09;21.90;64.40
80706;DHT22;70073;48.010;7.852;2023-05-10T07:01:34;22.00;64.50
80706;DHT22;70073;48.010;7.852;2023-05-10T07:04:00;21.90;64.40
80706;DHT22;70073;48.010;7.852;2023-05-10T07:06:26;21.90;64.40
80706;DHT22;70073;48.010;7.852;2023-05-10T07:08:52;21.90;64.70
80706;DHT22;70073;48.010;7.852;2023-05-10T07:11:18;21.90;63.50
80706;DHT22;70073;48.010;7.852;2023-05-10T07:13:43;21.90;63.20
80706;DHT22;70073;48.010;7.852;2023-05-10T07:16:11;21.90;63.60
80706;DHT22;70073;48.010;7.852;2023-05-10T07:18:37;21.90;64.20
80706;DHT22;70073;48.010;7.852;2023-05-10T07:21:03;22.00;64.30
80706;DHT22;70073;48.010;7.852;2023-05-10T07:23:28;22.00;64.10
80706;DHT22;70073;48.010;7.852;2023-05-10T07:25:55;22.00;64.10
80706;DHT22;70073;48.010;7.852;2023-05-10T07:28:22;22.00;64.20
80706;DHT22;70073;48.010;7.852;2023-05-10T07:30:48;22.00;64.10
80706;DHT22;70073;48.010;7.852;2023-05-10T07:33:14;22.00;63.90
80706;DHT22;70073;48.010;7.852;2023-05-10T07:35:40;22.00;63.90
80706;DHT22;70073;48.010;7.852;2023-05-10T07:38:06;22.00;63.90
80706;DHT22;70073;48.010;7.852;2023-05-10T07:40:32;22.00;63.90
80706;DHT22;70073;48.010;7.852;2023-05-10T07:42:58;22.00;63.90
80706;DHT22;70073;48.010;7.852;2023-05-10T07:45:23;22.00;63.90
80706;DHT22;70073;48.010;7.852;2023-05-10T07:47:49;22.00;63.90
80706;DHT22;70073;48.010;7.852;2023-05-10T07:50:15;22.00;63.90
80706;DHT22;70073;48.010;7.852;2023-05-10T07:52:40;22.10;64.00
80706;DHT22;70073;48.010;7.852;2023-05-10T07:55:06;22.00;63.80
80706;DHT22;70073;48.010;7.852;2023-05-10T07:57:33;22.10;64.00
80706;DHT22;70073;48.010;7.852;2023-05-10T07:59:59;22.10;63.90
80706;DHT22;70073;48.010;7.852;2023-05-10T08:02:24;22.10;63.90
80706;DHT22;70073;48.010;7.852;2023-05-10T08:04:50;22.10;63.80
80706;DHT22;70073;48.010;7.852;2023-05-10T08:07:16;22.10;63.90
80706;DHT22;70073;48.010;7.852;2023-05-10T08:09:42;22.10;63.90
80706;DHT22;70073;48.010;7.852;2023-05-10T08:12:08;22.10;63.90
80706;DHT22;70073;48.010;7.852;2023-05-10T08:14:33;22.00;63.70
80706;DHT22;70073;48.010;7.852;2023-05-10T08:16:59;22.10;63.90
80706;DHT22;70073;48.010;7.852;2023-05-10T08:19:24;22.10;63.80
80706;DHT22;70073;48.010;7.852;2023-05-10T08:21:50;22.10;63.90
80706;DHT22;70073;48.010;7.852;2023-05-10T08:24:16;22.10;63.80
80706;DHT22;70073;48.010;7.852;2023-05-10T08:26:41;22.10;63.70
80706;DHT22;70073;48.010;7.852;2023-05-10T08:29:07;22.10;63.80
80706;DHT22;70073;48.010;7.852;2023-05-10T08:31:32;22.10;63.70
80706;DHT22;70073;48.010;7.852;2023-05-10T08:33:58;22.20;63.70
80706;DHT22;70073;48.010;7.852;2023-05-10T08:36:24;22.10;63.70
80706;DHT22;70073;48.010;7.852;2023-05-10T08:38:53;22.10;63.60
80706;DHT22;70073;48.010;7.852;2023-05-10T08:41:22;22.20;63.50
80706;DHT22;70073;48.010;7.852;2023-05-10T08:43:50;22.20;63.40
80706;DHT22;70073;48.010;7.852;2023-05-10T08:46:18;22.20;63.20
80706;DHT22;70073;48.010;7.852;2023-05-10T08:48:48;22.30;63.20
80706;DHT22;70073;48.010;7.852;2023-05-10T08:51:17;22.30;63.00
80706;DHT22;70073;48.010;7.852;2023-05-10T08:53:43;22.30;63.00
80706;DHT22;70073;48.010;7.852;2023-05-10T08:56:09;22.30;62.90
80706;DHT22;70073;48.010;7.852;2023-05-10T08:58:36;22.30;62.70
80706;DHT22;70073;48.010;7.852;2023-05-10T09:01:02;22.30;62.50
80706;DHT22;70073;48.010;7.852;2023-05-10T09:03:29;22.30;62.60
80706;DHT22;70073;48.010;7.852;2023-05-10T09:05:55;22.40;62.60
80706;DHT22;70073;48.010;7.852;2023-05-10T09:08:22;22.40;62.40
80706;DHT22;70073;48.010;7.852;2023-05-10T09:10:50;22.40;62.30
80706;DHT22;70073;48.010;7.852;2023-05-10T09:13:17;22.40;62.40
80706;DHT22;70073;48.010;7.852;2023-05-10T09:15:44;22.30;62.50
80706;DHT22;70073;48.010;7.852;2023-05-10T09:18:10;22.40;62.40
80706;DHT22;70073;48.010;7.852;2023-05-10T09:20:36;22.30;62.30
80706;DHT22;70073;48.010;7.852;2023-05-10T09:23:01;22.30;62.70
80706;DHT22;70073;48.010;7.852;2023-05-10T09:25:27;22.30;62.60
80706;DHT22;70073;48.010;7.852;2023-05-10T09:27:52;22.30;62.50
80706;DHT22;70073;48.010;7.852;2023-05-10T09:30:29;22.30;62.70
80706;DHT22;70073;48.010;7.852;2023-05-10T09:32:55;22.30;62.50
80706;DHT22;70073;48.010;7.852;2023-05-10T09:35:24;22.30;62.50
80706;DHT22;70073;48.010;7.852;2023-05-10T09:37:52;22.30;62.40
80706;DHT22;70073;48.010;7.852;2023-05-10T09:40:27;22.30;62.30
80706;DHT22;70073;48.010;7.852;2023-05-10T09:42:54;22.30;62.40
80706;DHT22;70073;48.010;7.852;2023-05-10T09:45:21;22.40;62.40
80706;DHT22;70073;48.010;7.852;2023-05-10T09:47:47;22.40;62.10
80706;DHT22;70073;48.010;7.852;2023-05-10T09:50:12;22.40;62.00
80706;DHT22;70073;48.010;7.852;2023-05-10T09:52:52;22.40;61.90
80706;DHT22;70073;48.010;7.852;2023-05-10T09:55:21;22.50;61.60
80706;DHT22;70073;48.010;7.852;2023-05-10T09:57:48;22.50;61.60
80706;DHT22;70073;48.010;7.852;2023-05-10T10:00:18;22.50;61.50
80706;DHT22;70073;48.010;7.852;2023-05-10T10:02:53;22.60;61.70
80706;DHT22;70073;48.010;7.852;2023-05-10T10:05:19;22.60;61.30
80706;DHT22;70073;48.010;7.852;2023-05-10T10:07:45;22.60;61.40
80706;DHT22;70073;48.010;7.852;2023-05-10T10:10:11;22.60;60.90
80706;DHT22;70073;48.010;7.852;2023-05-10T10:12:39;22.60;60.90
80706;DHT22;70073;48.010;7.852;2023-05-10T10:15:05;22.60;60.90
80706;DHT22;70073;48.010;7.852;2023-05-10T10:17:32;22.60;61.30
80706;DHT22;70073;48.010;7.852;2023-05-10T10:20:00;22.60;60.80
80706;DHT22;70073;48.010;7.852;2023-05-10T10:22:27;22.60;61.10
80706;DHT22;70073;48.010;7.852;2023-05-10T10:24:54;22.60;60.50
80706;DHT22;70073;48.010;7.852;2023-05-10T10:27:42;22.60;60.90
80706;DHT22;70073;48.010;7.852;2023-05-10T10:35:32;22.60;60.70
80706;DHT22;70073;48.010;7.852;2023-05-10T10:37:58;22.60;60.30
80706;DHT22;70073;48.010;7.852;2023-05-10T10:42:50;22.60;60.40
80706;DHT22;70073;48.010;7.852;2023-05-10T10:45:15;22.50;60.10
80706;DHT22;70073;48.010;7.852;2023-05-10T10:47:41;22.60;60.50
80706;DHT22;70073;48.010;7.852;2023-05-10T10:50:08;22.60;60.60
80706;DHT22;70073;48.010;7.852;2023-05-10T10:52:39;22.50;60.00
80706;DHT22;70073;48.010;7.852;2023-05-10T10:55:18;22.50;60.60
80706;DHT22;70073;48.010;7.852;2023-05-10T10:57:49;22.50;60.60
80706;DHT22;70073;48.010;7.852;2023-05-10T11:00:33;22.40;60.40
80706;DHT22;70073;48.010;7.852;2023-05-10T11:08:00;22.40;60.50
80706;DHT22;70073;48.010;7.852;2023-05-10T11:10:26;22.40;60.10
80706;DHT22;70073;48.010;7.852;2023-05-10T11:15:19;22.60;59.80
80706;DHT22;70073;48.010;7.852;2023-05-10T11:17:47;22.50;60.00
80706;DHT22;70073;48.010;7.852;2023-05-10T11:20:17;22.40;60.20
80706;DHT22;70073;48.010;7.852;2023-05-10T11:22:54;22.40;60.10
80706;DHT22;70073;48.010;7.852;2023-05-10T11:25:26;22.40;60.10
80706;DHT22;70073;48.010;7.852;2023-05-10T11:27:51;22.40;59.80
80706;DHT22;70073;48.010;7.852;2023-05-10T11:30:17;22.40;60.00
80706;DHT22;70073;48.010;7.852;2023-05-10T11:32:43;22.40;60.20
80706;DHT22;70073;48.010;7.852;2023-05-10T11:35:11;22.40;60.00
80706;DHT22;70073;48.010;7.852;2023-05-10T11:37:38;22.40;60.10
80706;DHT22;70073;48.010;7.852;2023-05-10T11:40:07;22.30;59.80
80706;DHT22;70073;48.010;7.852;2023-05-10T11:42:37;22.30;60.10
80706;DHT22;70073;48.010;7.852;2023-05-10T11:45:02;22.30;59.90
80706;DHT22;70073;48.010;7.852;2023-05-10T11:47:28;22.30;60.30
80706;DHT22;70073;48.010;7.852;2023-05-10T11:49:54;22.30;59.80
80706;DHT22;70073;48.010;7.852;2023-05-10T11:52:19;22.30;60.30
80706;DHT22;70073;48.010;7.852;2023-05-10T11:54:51;22.30;60.30
80706;DHT22;70073;48.010;7.852;2023-05-10T11:57:18;22.30;60.20
80706;DHT22;70073;48.010;7.852;2023-05-10T11:59:45;22.30;60.00
80706;DHT22;70073;48.010;7.852;2023-05-10T12:02:12;22.20;59.80
80706;DHT22;70073;48.010;7.852;2023-05-10T12:04:38;22.30;60.40
80706;DHT22;70073;48.010;7.852;2023-05-10T12:07:03;22.30;60.40
80706;DHT22;70073;48.010;7.852;2023-05-10T12:09:29;22.20;60.40
80706;DHT22;70073;48.010;7.852;2023-05-10T12:11:58;22.30;60.60
80706;DHT22;70073;48.010;7.852;2023-05-10T12:14:23;22.30;60.10
80706;DHT22;70073;48.010;7.852;2023-05-10T12:16:49;22.30;59.90
80706;DHT22;70073;48.010;7.852;2023-05-10T12:19:19;22.30;59.80
80706;DHT22;70073;48.010;7.852;2023-05-10T12:21:45;22.30;60.20
80706;DHT22;70073;48.010;7.852;2023-05-10T12:24:11;22.20;60.40
80706;DHT22;70073;48.010;7.852;2023-05-10T12:26:37;22.20;60.10
80706;DHT22;70073;48.010;7.852;2023-05-10T12:29:14;22.30;60.40
80706;DHT22;70073;48.010;7.852;2023-05-10T12:31:55;22.20;60.50
80706;DHT22;70073;48.010;7.852;2023-05-10T12:34:30;22.20;60.40
80706;DHT22;70073;48.010;7.852;2023-05-10T12:36:56;22.20;60.20
80706;DHT22;70073;48.010;7.852;2023-05-10T12:39:22;22.20;60.40
80706;DHT22;70073;48.010;7.852;2023-05-10T12:41:47;22.20;60.50
80706;DHT22;70073;48.010;7.852;2023-05-10T12:44:13;22.20;60.50
80706;DHT22;70073;48.010;7.852;2023-05-10T12:46:38;22.20;60.60
80706;DHT22;70073;48.010;7.852;2023-05-10T12:49:04;22.20;60.40
80706;DHT22;70073;48.010;7.852;2023-05-10T12:51:29;22.10;60.40
80706;DHT22;70073;48.010;7.852;2023-05-10T12:53:56;22.20;60.70
80706;DHT22;70073;48.010;7.852;2023-05-10T12:56:21;22.20;60.50
80706;DHT22;70073;48.010;7.852;2023-05-10T12:58:47;22.20;60.10
80706;DHT22;70073;48.010;7.852;2023-05-10T13:01:14;22.20;60.80
80706;DHT22;70073;48.010;7.852;2023-05-10T13:03:39;22.10;60.30
80706;DHT22;70073;48.010;7.852;2023-05-10T13:06:05;22.20;61.10
80706;DHT22;70073;48.010;7.852;2023-05-10T13:08:32;22.20;60.50
80706;DHT22;70073;48.010;7.852;2023-05-10T13:10:59;22.20;60.30
80706;DHT22;70073;48.010;7.852;2023-05-10T13:13:25;22.20;60.40
80706;DHT22;70073;48.010;7.852;2023-05-10T13:15:51;22.20;60.40
80706;DHT22;70073;48.010;7.852;2023-05-10T13:18:17;22.20;60.40
80706;DHT22;70073;48.010;7.852;2023-05-10T13:20:42;22.20;60.30
80706;DHT22;70073;48.010;7.852;2023-05-10T13:23:09;22.20;60.40
80706;DHT22;70073;48.010;7.852;2023-05-10T13:25:35;22.30;60.20
80706;DHT22;70073;48.010;7.852;2023-05-10T13:28:01;22.30;60.20
80706;DHT22;70073;48.010;7.852;2023-05-10T13:30:26;22.20;60.40
80706;DHT22;70073;48.010;7.852;2023-05-10T13:32:52;22.20;60.40
80706;DHT22;70073;48.010;7.852;2023-05-10T13:35:18;22.20;60.10
80706;DHT22;70073;48.010;7.852;2023-05-10T13:37:43;22.20;60.30
80706;DHT22;70073;48.010;7.852;2023-05-10T13:40:09;22.20;60.30
80706;DHT22;70073;48.010;7.852;2023-05-10T13:42:35;22.20;60.20
80706;DHT22;70073;48.010;7.852;2023-05-10T13:45:01;22.20;60.50
80706;DHT22;70073;48.010;7.852;2023-05-10T13:47:27;22.20;60.10
80706;DHT22;70073;48.010;7.852;2023-05-10T13:49:53;22.20;60.40
80706;DHT22;70073;48.010;7.852;2023-05-10T13:52:18;22.20;60.10
80706;DHT22;70073;48.010;7.852;2023-05-10T13:54:44;22.10;60.20
80706;DHT22;70073;48.010;7.852;2023-05-10T13:57:09;22.20;60.20
80706;DHT22;70073;48.010;7.852;2023-05-10T13:59:37;22.10;60.30
80706;DHT22;70073;48.010;7.852;2023-05-10T14:02:03;22.20;60.00
80706;DHT22;70073;48.010;7.852;2023-05-10T14:04:29;22.20;60.00
80706;DHT22;70073;48.010;7.852;2023-05-10T14:06:55;22.20;60.30
80706;DHT22;70073;48.010;7.852;2023-05-10T14:09:21;22.20;60.20
80706;DHT22;70073;48.010;7.852;2023-05-10T14:11:46;22.20;60.20
80706;DHT22;70073;48.010;7.852;2023-05-10T14:14:12;22.30;59.80
80706;DHT22;70073;48.010;7.852;2023-05-10T14:16:42;22.30;59.90
80706;DHT22;70073;48.010;7.852;2023-05-10T14:19:08;22.30;59.90
80706;DHT22;70073;48.010;7.852;2023-05-10T14:21:33;22.30;59.60
80706;DHT22;70073;48.010;7.852;2023-05-10T14:23:59;22.30;59.50
80706;DHT22;70073;48.010;7.852;2023-05-10T14:26:24;22.30;59.50
80706;DHT22;70073;48.010;7.852;2023-05-10T14:28:51;22.30;59.50
80706;DHT22;70073;48.010;7.852;2023-05-10T14:31:17;22.30;59.40
80706;DHT22;70073;48.010;7.852;2023-05-10T14:33:44;22.30;59.30
80706;DHT22;70073;48.010;7.852;2023-05-10T14:36:10;22.30;59.20
80706;DHT22;70073;48.010;7.852;2023-05-10T14:38:36;22.30;59.20
80706;DHT22;70073;48.010;7.852;2023-05-10T14:41:01;22.30;59.30
80706;DHT22;70073;48.010;7.852;2023-05-10T14:43:27;22.40;59.60
80706;DHT22;70073;48.010;7.852;2023-05-10T14:45:53;22.30;59.10
80706;DHT22;70073;48.010;7.852;2023-05-10T14:48:19;22.30;59.60
80706;DHT22;70073;48.010;7.852;2023-05-10T14:50:45;22.20;59.40
80706;DHT22;70073;48.010;7.852;2023-05-10T14:53:11;22.30;59.20
80706;DHT22;70073;48.010;7.852;2023-05-10T14:55:37;22.20;59.50
80706;DHT22;70073;48.010;7.852;2023-05-10T14:58:03;22.30;59.30
80706;DHT22;70073;48.010;7.852;2023-05-10T15:00:29;22.30;59.20
80706;DHT22;70073;48.010;7.852;2023-05-10T15:02:55;22.30;59.20
80706;DHT22;70073;48.010;7.852;2023-05-10T15:05:21;22.30;59.00
80706;DHT22;70073;48.010;7.852;2023-05-10T15:07:46;22.30;58.90
80706;DHT22;70073;48.010;7.852;2023-05-10T15:10:12;22.30;58.90
80706;DHT22;70073;48.010;7.852;2023-05-10T15:12:38;22.40;58.50
80706;DHT22;70073;48.010;7.852;2023-05-10T15:15:04;22.40;58.50
80706;DHT22;70073;48.010;7.852;2023-05-10T15:17:30;22.50;58.50
80706;DHT22;70073;48.010;7.852;2023-05-10T15:19:56;22.50;59.10
80706;DHT22;70073;48.010;7.852;2023-05-10T15:22:21;22.40;58.30
80706;DHT22;70073;48.010;7.852;2023-05-10T15:24:47;22.40;58.40
80706;DHT22;70073;48.010;7.852;2023-05-10T15:27:13;22.40;58.40
80706;DHT22;70073;48.010;7.852;2023-05-10T15:29:38;22.40;58.80
80706;DHT22;70073;48.010;7.852;2023-05-10T15:32:04;22.30;58.60
80706;DHT22;70073;48.010;7.852;2023-05-10T15:34:29;22.30;58.60
80706;DHT22;70073;48.010;7.852;2023-05-10T15:36:55;22.40;58.60
80706;DHT22;70073;48.010;7.852;2023-05-10T15:39:20;22.40;58.70
80706;DHT22;70073;48.010;7.852;2023-05-10T15:41:46;22.50;58.50
80706;DHT22;70073;48.010;7.852;2023-05-10T15:44:12;22.50;58.70
80706;DHT22;70073;48.010;7.852;2023-05-10T15:46:38;22.60;58.40
80706;DHT22;70073;48.010;7.852;2023-05-10T15:49:04;22.60;58.20
80706;DHT22;70073;48.010;7.852;2023-05-10T15:51:30;22.60;58.10
80706;DHT22;70073;48.010;7.852;2023-05-10T15:53:58;22.70;58.00
80706;DHT22;70073;48.010;7.852;2023-05-10T15:56:23;22.60;58.10
80706;DHT22;70073;48.010;7.852;2023-05-10T15:58:49;22.60;58.20
80706;DHT22;70073;48.010;7.852;2023-05-10T16:01:14;22.60;58.10
80706;DHT22;70073;48.010;7.852;2023-05-10T16:03:40;22.60;57.90